createdAt,value
2018-08-31T00:02:11.590Z,11.30
2018-08-31T00:03:20.390Z,11.40
2018-08-31T00:04:37.564Z,11.40
2018-08-31T00:05:53.756Z,11.30
2018-08-31T00:07:42.717Z,11.40
2018-08-31T00:09:06.590Z,11.30
2018-08-31T00:12:25.558Z,11.30
2018-08-31T00:13:29.253Z,11.30
2018-08-31T00:14:32.967Z,11.10
2018-08-31T00:15:36.785Z,11.00
2018-08-31T00:16:40.419Z,11.00
2018-08-31T00:17:44.718Z,11.00
2018-08-31T00:18:48.328Z,10.90
2018-08-31T00:19:52.105Z,10.90
2018-08-31T00:20:55.698Z,10.90
2018-08-31T00:21:59.582Z,10.80
2018-08-31T00:23:03.486Z,10.90
2018-08-31T00:24:18.423Z,10.90
2018-08-31T00:26:00.773Z,10.90
2018-08-31T00:27:15.584Z,10.90
2018-08-31T00:28:22.754Z,10.90
2018-08-31T00:29:37.586Z,11.00
2018-08-31T00:30:52.411Z,10.90
2018-08-31T00:34:14.306Z,11.00
2018-08-31T00:35:32.477Z,11.00
2018-08-31T00:37:01.423Z,11.10
2018-08-31T00:40:25.627Z,11.10
2018-08-31T00:41:40.459Z,11.00
2018-08-31T00:44:58.721Z,10.90
2018-08-31T00:46:02.597Z,10.90
2018-08-31T00:47:06.314Z,10.80
2018-08-31T00:48:10.322Z,10.80
2018-08-31T00:49:13.930Z,10.80
2018-08-31T00:50:17.622Z,10.70
2018-08-31T00:51:22.192Z,10.70
2018-08-31T00:52:25.775Z,10.70
2018-08-31T00:53:29.409Z,10.70
2018-08-31T00:54:33.074Z,10.70
2018-08-31T00:55:36.725Z,10.60
2018-08-31T00:56:40.362Z,10.60
2018-08-31T00:57:44.004Z,10.60
2018-08-31T00:58:47.703Z,10.60
2018-08-31T00:59:51.602Z,10.60
2018-08-31T01:00:55.343Z,10.60
2018-08-31T01:01:58.988Z,10.60
2018-08-31T01:03:02.655Z,10.70
2018-08-31T01:04:06.445Z,10.60
2018-08-31T01:05:10.178Z,10.60
2018-08-31T01:06:13.934Z,10.60
2018-08-31T01:07:17.541Z,10.70
2018-08-31T01:08:21.266Z,10.60
2018-08-31T01:09:24.821Z,10.60
2018-08-31T01:10:28.428Z,10.50
2018-08-31T01:11:32.057Z,10.40
2018-08-31T01:12:35.826Z,10.40
2018-08-31T01:13:39.406Z,10.40
2018-08-31T01:14:43.116Z,10.30
2018-08-31T01:15:46.735Z,10.30
2018-08-31T01:16:50.746Z,10.20
2018-08-31T01:17:54.426Z,10.20
2018-08-31T01:18:58.010Z,10.30
2018-08-31T01:20:01.991Z,10.20
2018-08-31T01:21:05.787Z,10.20
2018-08-31T01:22:09.627Z,10.20
2018-08-31T01:23:13.263Z,10.10
2018-08-31T01:24:16.900Z,10.10
2018-08-31T01:25:20.707Z,10.10
2018-08-31T01:26:24.517Z,10.00
2018-08-31T01:27:28.219Z,10.00
2018-08-31T01:28:32.005Z,10.00
2018-08-31T01:29:35.842Z,9.90
2018-08-31T01:30:39.543Z,9.90
2018-08-31T01:31:43.274Z,9.80
2018-08-31T01:32:46.936Z,9.80
2018-08-31T01:33:50.528Z,9.80
2018-08-31T01:34:54.159Z,9.80
2018-08-31T01:35:57.789Z,9.70
2018-08-31T01:37:01.575Z,9.70
2018-08-31T01:38:05.270Z,9.70
2018-08-31T01:39:09.136Z,9.70
2018-08-31T01:40:12.849Z,9.80
2018-08-31T01:41:16.537Z,9.70
2018-08-31T01:42:20.128Z,9.70
2018-08-31T01:43:23.727Z,9.70
2018-08-31T01:44:27.356Z,9.70
2018-08-31T01:45:30.943Z,9.70
2018-08-31T01:46:34.782Z,9.70
2018-08-31T01:47:38.411Z,9.70
2018-08-31T01:48:42.015Z,9.70
2018-08-31T01:49:45.771Z,9.70
2018-08-31T01:50:54.826Z,9.60
2018-08-31T01:51:58.418Z,9.60
2018-08-31T01:53:02.290Z,9.60
2018-08-31T01:54:05.982Z,9.60
2018-08-31T01:55:09.687Z,9.60
2018-08-31T01:56:13.307Z,9.60
2018-08-31T01:57:17.034Z,9.60
2018-08-31T01:58:20.643Z,9.50
2018-08-31T01:59:24.355Z,9.60
2018-08-31T02:00:28.291Z,9.50
2018-08-31T02:01:31.982Z,9.50
2018-08-31T02:02:35.555Z,9.50
2018-08-31T02:03:39.211Z,9.50
2018-08-31T02:04:42.851Z,9.50
2018-08-31T02:05:46.616Z,9.50
2018-08-31T02:06:50.215Z,9.70
2018-08-31T02:07:53.810Z,9.80
2018-08-31T02:09:05.766Z,9.80
2018-08-31T02:10:09.390Z,9.70
2018-08-31T02:11:16.806Z,9.70
2018-08-31T02:12:21.594Z,9.60
2018-08-31T02:13:25.261Z,9.60
2018-08-31T02:14:29.276Z,9.60
2018-08-31T02:15:32.867Z,9.50
2018-08-31T02:16:36.678Z,9.50
2018-08-31T02:17:40.251Z,9.50
2018-08-31T02:18:43.827Z,9.50
2018-08-31T02:19:47.429Z,9.40
2018-08-31T02:20:50.994Z,9.40
2018-08-31T02:21:54.725Z,9.40
2018-08-31T02:22:58.413Z,9.40
2018-08-31T02:24:02.558Z,9.40
2018-08-31T02:25:06.201Z,9.40
2018-08-31T02:26:09.799Z,9.50
2018-08-31T02:27:13.352Z,9.60
2018-08-31T02:28:17.276Z,9.70
2018-08-31T02:29:20.887Z,9.80
2018-08-31T02:30:24.447Z,9.80
2018-08-31T02:31:28.033Z,9.80
2018-08-31T02:32:31.687Z,9.80
2018-08-31T02:33:35.271Z,9.70
2018-08-31T02:34:38.844Z,9.70
2018-08-31T02:35:42.426Z,9.70
2018-08-31T02:36:46.326Z,9.70
2018-08-31T02:37:49.890Z,9.60
2018-08-31T02:38:53.705Z,9.60
2018-08-31T02:39:57.371Z,9.60
2018-08-31T02:41:01.012Z,9.60
2018-08-31T02:42:04.625Z,9.60
2018-08-31T02:43:08.362Z,9.50
2018-08-31T02:44:12.112Z,9.50
2018-08-31T02:45:16.391Z,9.50
2018-08-31T02:46:21.225Z,9.50
2018-08-31T02:47:24.929Z,9.50
2018-08-31T02:48:28.590Z,9.60
2018-08-31T02:49:32.334Z,9.60
2018-08-31T02:50:36.042Z,9.60
2018-08-31T02:51:39.772Z,9.60
2018-08-31T02:52:43.333Z,9.70
2018-08-31T02:53:47.002Z,9.70
2018-08-31T02:54:50.543Z,9.70
2018-08-31T02:55:54.212Z,9.70
2018-08-31T02:56:57.865Z,9.70
2018-08-31T02:58:01.430Z,9.70
2018-08-31T02:59:05.018Z,9.70
2018-08-31T03:00:08.758Z,9.70
2018-08-31T03:01:12.644Z,9.70
2018-08-31T03:02:16.540Z,9.70
2018-08-31T03:03:20.112Z,9.70
2018-08-31T03:04:23.702Z,9.70
2018-08-31T03:05:27.278Z,9.70
2018-08-31T03:06:31.071Z,9.70
2018-08-31T03:07:35.523Z,9.70
2018-08-31T03:08:39.240Z,9.80
2018-08-31T03:09:42.868Z,9.80
2018-08-31T03:10:46.713Z,9.80
2018-08-31T03:11:50.299Z,9.70
2018-08-31T03:12:53.974Z,9.70
2018-08-31T03:13:57.582Z,9.70
2018-08-31T03:15:01.197Z,9.60
2018-08-31T03:16:04.904Z,9.60
2018-08-31T03:17:08.529Z,9.60
2018-08-31T03:18:12.223Z,9.70
2018-08-31T03:19:15.797Z,9.70
2018-08-31T03:20:19.384Z,9.70
2018-08-31T03:21:22.989Z,9.70
2018-08-31T03:22:26.605Z,9.70
2018-08-31T03:23:30.216Z,9.70
2018-08-31T03:24:33.797Z,9.70
2018-08-31T03:25:37.848Z,9.70
2018-08-31T03:26:41.422Z,9.60
2018-08-31T03:27:45.022Z,9.60
2018-08-31T03:28:48.569Z,9.60
2018-08-31T03:29:52.122Z,9.60
2018-08-31T03:30:55.807Z,9.50
2018-08-31T03:31:59.397Z,9.50
2018-08-31T03:33:03.048Z,9.50
2018-08-31T03:34:06.829Z,9.50
2018-08-31T03:35:10.354Z,9.50
2018-08-31T03:36:13.917Z,9.40
2018-08-31T03:37:17.499Z,9.50
2018-08-31T03:38:21.173Z,9.50
2018-08-31T03:39:24.754Z,9.50
2018-08-31T03:40:28.340Z,9.50
2018-08-31T03:41:31.900Z,9.50
2018-08-31T03:42:35.557Z,9.50
2018-08-31T03:43:39.171Z,9.50
2018-08-31T03:44:42.729Z,9.50
2018-08-31T03:45:46.407Z,9.60
2018-08-31T03:46:49.974Z,9.60
2018-08-31T03:47:53.681Z,9.60
2018-08-31T03:48:57.992Z,9.70
2018-08-31T03:50:01.751Z,9.70
2018-08-31T03:51:05.650Z,9.80
2018-08-31T03:52:09.237Z,9.80
2018-08-31T03:53:12.896Z,9.90
2018-08-31T03:54:16.710Z,9.90
2018-08-31T03:55:20.398Z,9.90
2018-08-31T03:56:24.062Z,9.90
2018-08-31T03:57:28.171Z,9.90
2018-08-31T03:58:31.761Z,10.00
2018-08-31T03:59:35.436Z,10.20
2018-08-31T04:00:39.411Z,10.20
2018-08-31T04:01:43.074Z,10.20
2018-08-31T04:02:46.629Z,10.20
2018-08-31T04:03:50.328Z,10.20
2018-08-31T04:04:54.201Z,10.20
2018-08-31T04:05:57.809Z,10.20
2018-08-31T04:07:01.469Z,10.20
2018-08-31T04:08:05.249Z,10.20
2018-08-31T04:09:09.023Z,10.30
2018-08-31T04:10:12.597Z,10.20
2018-08-31T04:11:16.258Z,10.30
2018-08-31T04:12:20.983Z,10.30
2018-08-31T04:13:24.849Z,10.20
2018-08-31T04:14:28.710Z,10.20
2018-08-31T04:15:32.654Z,10.20
2018-08-31T04:16:36.228Z,10.30
2018-08-31T04:17:39.855Z,10.30
2018-08-31T04:18:43.439Z,10.30
2018-08-31T04:19:47.093Z,10.30
2018-08-31T04:20:50.703Z,10.40
2018-08-31T04:21:54.710Z,10.40
2018-08-31T04:22:58.270Z,10.40
2018-08-31T04:24:01.847Z,10.40
2018-08-31T04:25:05.677Z,10.40
2018-08-31T04:26:09.357Z,10.40
2018-08-31T04:27:12.935Z,10.40
2018-08-31T04:28:16.599Z,10.40
2018-08-31T04:29:20.223Z,10.40
2018-08-31T04:30:23.849Z,10.40
2018-08-31T04:31:28.377Z,10.40
2018-08-31T04:32:32.038Z,10.40
2018-08-31T04:33:35.731Z,10.30
2018-08-31T04:34:39.624Z,10.30
2018-08-31T04:35:43.372Z,10.30
2018-08-31T04:36:47.113Z,10.20
2018-08-31T04:37:50.730Z,10.20
2018-08-31T04:38:54.462Z,10.20
2018-08-31T04:39:58.276Z,10.20
2018-08-31T04:41:01.970Z,10.20
2018-08-31T04:42:06.473Z,10.20
2018-08-31T04:43:10.137Z,10.10
2018-08-31T04:44:13.744Z,10.10
2018-08-31T04:45:17.359Z,10.10
2018-08-31T04:46:21.749Z,10.10
2018-08-31T04:47:25.398Z,10.10
2018-08-31T04:48:29.018Z,10.10
2018-08-31T04:49:32.616Z,10.00
2018-08-31T04:50:36.203Z,10.10
2018-08-31T04:51:39.801Z,10.10
2018-08-31T04:52:43.984Z,10.10
2018-08-31T04:53:47.616Z,10.20
2018-08-31T04:54:51.310Z,10.30
2018-08-31T04:55:55.183Z,10.30
2018-08-31T04:56:58.809Z,10.30
2018-08-31T04:58:02.793Z,10.30
2018-08-31T04:59:06.430Z,10.20
2018-08-31T05:00:10.095Z,10.20
2018-08-31T05:01:13.783Z,10.20
2018-08-31T05:02:17.424Z,10.20
2018-08-31T05:03:21.066Z,10.20
2018-08-31T05:04:24.632Z,10.20
2018-08-31T05:05:28.210Z,10.20
2018-08-31T05:06:31.855Z,10.20
2018-08-31T05:07:35.469Z,10.20
2018-08-31T05:08:39.055Z,10.20
2018-08-31T05:09:42.775Z,10.30
2018-08-31T05:10:46.442Z,10.30
2018-08-31T05:11:50.146Z,10.30
2018-08-31T05:12:53.812Z,10.30
2018-08-31T05:13:57.393Z,10.40
2018-08-31T05:15:01.177Z,10.50
2018-08-31T05:16:04.811Z,10.50
2018-08-31T05:17:08.321Z,10.90
2018-08-31T05:18:11.917Z,11.40
2018-08-31T05:19:15.482Z,11.60
2018-08-31T05:20:19.985Z,11.70
2018-08-31T05:21:23.534Z,11.60
2018-08-31T05:22:27.177Z,11.60
2018-08-31T05:23:30.686Z,11.60
2018-08-31T05:24:34.430Z,11.90
2018-08-31T05:25:38.133Z,11.90
2018-08-31T05:26:41.806Z,11.90
2018-08-31T05:27:45.620Z,11.90
2018-08-31T05:28:49.986Z,11.90
2018-08-31T05:29:53.890Z,11.90
2018-08-31T05:30:57.477Z,11.90
2018-08-31T05:32:01.222Z,11.90
2018-08-31T05:33:04.890Z,11.90
2018-08-31T05:34:08.535Z,12.00
2018-08-31T05:35:12.553Z,12.10
2018-08-31T05:36:16.329Z,12.10
2018-08-31T05:37:20.005Z,12.20
2018-08-31T05:38:23.746Z,12.30
2018-08-31T05:39:27.365Z,12.30
2018-08-31T05:40:31.002Z,12.30
2018-08-31T05:41:34.678Z,12.40
2018-08-31T05:42:38.486Z,12.40
2018-08-31T05:43:42.115Z,12.70
2018-08-31T05:44:45.743Z,12.90
2018-08-31T05:45:49.339Z,13.00
2018-08-31T05:46:52.945Z,13.00
2018-08-31T05:47:56.795Z,13.10
2018-08-31T05:49:00.833Z,13.10
2018-08-31T05:50:05.099Z,13.00
2018-08-31T05:51:08.749Z,13.10
2018-08-31T05:52:12.474Z,13.10
2018-08-31T05:53:16.358Z,13.10
2018-08-31T05:54:20.591Z,13.20
2018-08-31T05:55:24.285Z,13.20
2018-08-31T05:56:28.272Z,13.30
2018-08-31T05:57:31.953Z,13.40
2018-08-31T05:58:35.669Z,13.40
2018-08-31T05:59:39.788Z,13.50
2018-08-31T06:00:43.493Z,13.50
2018-08-31T06:01:47.288Z,13.50
2018-08-31T06:02:51.085Z,13.60
2018-08-31T06:03:54.750Z,13.60
2018-08-31T06:04:58.398Z,13.60
2018-08-31T06:06:02.228Z,13.60
2018-08-31T06:07:06.003Z,13.70
2018-08-31T06:08:09.622Z,13.70
2018-08-31T06:09:13.862Z,13.70
2018-08-31T06:10:17.539Z,13.70
2018-08-31T06:11:21.378Z,13.70
2018-08-31T06:12:25.897Z,13.80
2018-08-31T06:13:29.761Z,13.90
2018-08-31T06:14:33.398Z,14.00
2018-08-31T06:15:37.367Z,14.00
2018-08-31T06:16:41.387Z,14.10
2018-08-31T06:17:45.094Z,14.40
2018-08-31T06:18:49.593Z,14.40
2018-08-31T06:19:53.711Z,14.80
2018-08-31T06:20:57.446Z,15.20
2018-08-31T06:22:01.105Z,15.30
2018-08-31T06:23:04.759Z,15.30
2018-08-31T06:24:08.475Z,15.30
2018-08-31T06:25:12.074Z,15.30
2018-08-31T06:26:16.224Z,15.30
2018-08-31T06:27:20.552Z,15.50
2018-08-31T06:28:24.463Z,15.70
2018-08-31T06:29:28.246Z,15.80
2018-08-31T06:30:33.712Z,16.10
2018-08-31T06:31:37.404Z,16.30
2018-08-31T06:32:41.347Z,16.40
2018-08-31T06:33:45.454Z,16.40
2018-08-31T06:34:49.047Z,16.40
2018-08-31T06:35:52.648Z,16.40
2018-08-31T06:36:57.068Z,16.40
2018-08-31T06:38:00.723Z,16.40
2018-08-31T06:39:05.845Z,16.40
2018-08-31T06:40:10.234Z,16.40
2018-08-31T06:41:13.865Z,16.40
2018-08-31T06:42:17.667Z,16.40
2018-08-31T06:43:21.351Z,16.40
2018-08-31T06:44:25.789Z,16.40
2018-08-31T06:45:29.386Z,16.40
2018-08-31T06:46:33.199Z,16.50
2018-08-31T06:47:36.972Z,16.50
2018-08-31T06:53:45.612Z,17.00
2018-08-31T06:55:06.101Z,17.00
2018-08-31T06:57:42.015Z,17.20
2018-08-31T06:58:53.089Z,17.40
2018-08-31T07:01:49.899Z,17.70
2018-08-31T07:04:33.953Z,18.10
2018-08-31T07:06:17.994Z,18.30
2018-08-31T07:07:54.700Z,18.50
2018-08-31T07:09:16.704Z,18.70
2018-08-31T07:10:40.751Z,18.80
2018-08-31T07:19:28.528Z,19.90
2018-08-31T07:30:50.030Z,20.90
2018-08-31T07:32:07.948Z,21.00
2018-08-31T07:33:11.470Z,21.10
2018-08-31T07:34:15.022Z,21.20
2018-08-31T07:35:18.598Z,21.30
2018-08-31T07:36:22.670Z,21.30
2018-08-31T07:37:26.311Z,21.40
2018-08-31T07:38:29.969Z,21.60
2018-08-31T07:39:33.603Z,21.70
2018-08-31T07:40:37.253Z,21.70
2018-08-31T07:41:40.947Z,21.80
2018-08-31T07:42:44.541Z,21.90
2018-08-31T07:43:48.197Z,21.90
2018-08-31T07:44:51.801Z,21.90
2018-08-31T07:45:55.378Z,21.90
2018-08-31T07:46:59.026Z,21.90
2018-08-31T07:48:02.772Z,21.90
2018-08-31T07:49:06.509Z,21.90
2018-08-31T07:50:10.145Z,21.90
2018-08-31T07:51:14.136Z,21.80
2018-08-31T07:52:17.798Z,21.90
2018-08-31T07:53:21.644Z,21.90
2018-08-31T07:54:25.547Z,22.10
2018-08-31T07:55:29.303Z,22.20
2018-08-31T07:56:33.012Z,22.10
2018-08-31T07:57:36.750Z,22.20
2018-08-31T07:58:40.526Z,22.20
2018-08-31T07:59:44.421Z,22.20
2018-08-31T08:00:48.418Z,22.10
2018-08-31T08:01:52.256Z,22.20
2018-08-31T08:02:55.857Z,22.00
2018-08-31T08:04:00.069Z,21.80
2018-08-31T08:05:03.980Z,21.80
2018-08-31T08:06:07.614Z,21.70
2018-08-31T08:07:12.502Z,21.70
2018-08-31T08:08:16.103Z,21.60
2018-08-31T08:09:19.742Z,21.50
2018-08-31T08:10:23.590Z,21.40
2018-08-31T08:11:27.204Z,21.50
2018-08-31T08:12:31.045Z,21.60
2018-08-31T08:13:34.640Z,21.70
2018-08-31T08:14:38.344Z,21.90
2018-08-31T08:15:41.904Z,21.80
2018-08-31T08:16:46.232Z,21.80
2018-08-31T08:17:50.041Z,21.90
2018-08-31T08:18:53.712Z,21.90
2018-08-31T08:19:57.545Z,21.80
2018-08-31T08:21:01.202Z,21.80
2018-08-31T08:22:05.583Z,21.80
2018-08-31T08:23:10.028Z,21.90
2018-08-31T08:24:13.824Z,22.10
2018-08-31T08:25:17.423Z,22.10
2018-08-31T08:26:21.027Z,22.20
2018-08-31T08:32:20.881Z,21.80
2018-08-31T08:33:24.486Z,21.80
2018-08-31T08:34:28.330Z,21.70
2018-08-31T08:35:32.708Z,21.60
2018-08-31T08:36:36.512Z,21.30
2018-08-31T08:37:40.186Z,21.20
2018-08-31T08:38:43.774Z,21.20
2018-08-31T08:39:47.534Z,21.20
2018-08-31T08:40:51.685Z,21.20
2018-08-31T08:41:55.442Z,21.30
2018-08-31T08:44:45.018Z,21.30
2018-08-31T08:45:48.679Z,21.30
2018-08-31T08:46:52.454Z,21.40
2018-08-31T08:47:56.165Z,21.30
2018-08-31T08:48:59.762Z,21.10
2018-08-31T08:50:03.414Z,20.90
2018-08-31T08:51:07.701Z,20.90
2018-08-31T08:52:11.593Z,20.80
2018-08-31T08:53:15.243Z,20.60
2018-08-31T08:54:18.909Z,20.40
2018-08-31T08:55:22.655Z,20.40
2018-08-31T08:56:26.830Z,20.50
2018-08-31T08:57:30.825Z,20.40
2018-08-31T08:58:35.286Z,20.40
2018-08-31T08:59:39.281Z,20.50
2018-08-31T09:00:43.182Z,20.60
2018-08-31T09:01:47.129Z,20.60
2018-08-31T09:02:50.700Z,20.70
2018-08-31T09:03:54.332Z,20.70
2018-08-31T09:04:58.140Z,20.80
2018-08-31T09:06:42.158Z,20.90
2018-08-31T09:07:45.793Z,21.00
2018-08-31T09:08:49.436Z,21.00
2018-08-31T09:09:53.156Z,21.00
2018-08-31T09:10:57.959Z,21.00
2018-08-31T09:12:01.762Z,21.10
2018-08-31T09:13:05.697Z,21.10
2018-08-31T09:14:09.903Z,21.20
2018-08-31T09:15:14.873Z,21.10
2018-08-31T09:16:18.794Z,21.10
2018-08-31T09:17:22.777Z,21.10
2018-08-31T09:18:28.934Z,20.90
2018-08-31T09:19:32.538Z,20.80
2018-08-31T09:20:36.297Z,20.80
2018-08-31T09:21:39.956Z,20.80
2018-08-31T09:22:43.755Z,21.00
2018-08-31T09:23:47.682Z,21.00
2018-08-31T09:24:51.322Z,21.00
2018-08-31T09:25:56.418Z,20.90
2018-08-31T09:27:00.565Z,20.90
2018-08-31T09:28:07.172Z,20.80
2018-08-31T09:29:11.030Z,20.80
2018-08-31T09:30:20.249Z,20.80
2018-08-31T09:31:24.885Z,20.70
2018-08-31T09:32:31.945Z,20.80
2018-08-31T09:33:35.643Z,20.90
2018-08-31T09:34:44.621Z,20.90
2018-08-31T09:35:49.632Z,20.90
2018-08-31T09:36:53.330Z,20.70
2018-08-31T09:37:57.015Z,20.50
2018-08-31T09:39:01.846Z,20.50
2018-08-31T09:40:05.911Z,20.50
2018-08-31T09:41:09.848Z,20.50
2018-08-31T09:42:14.420Z,20.70
2018-08-31T09:43:18.103Z,20.90
2018-08-31T09:44:21.833Z,21.00
2018-08-31T09:45:25.533Z,21.10
2018-08-31T09:46:29.618Z,21.10
2018-08-31T09:47:33.743Z,21.10
2018-08-31T09:48:37.686Z,20.90
2018-08-31T09:49:41.662Z,21.00
2018-08-31T09:50:45.336Z,21.10
2018-08-31T09:51:49.498Z,21.20
2018-08-31T09:52:53.126Z,21.20
2018-08-31T09:53:56.768Z,21.30
2018-08-31T09:55:00.446Z,21.40
2018-08-31T09:56:04.219Z,21.50
2018-08-31T09:57:08.248Z,21.50
2018-08-31T09:58:12.006Z,21.50
2018-08-31T09:59:15.659Z,21.60
2018-08-31T10:00:24.879Z,21.50
2018-08-31T10:01:36.184Z,21.40
2018-08-31T10:02:44.022Z,21.40
2018-08-31T10:03:47.715Z,21.40
2018-08-31T10:04:51.394Z,21.30
2018-08-31T10:05:56.088Z,21.30
2018-08-31T10:06:59.788Z,21.10
2018-08-31T10:08:03.717Z,20.80
2018-08-31T10:09:08.855Z,20.70
2018-08-31T10:10:12.659Z,20.60
2018-08-31T10:11:21.547Z,20.30
2018-08-31T10:12:25.382Z,20.10
2018-08-31T10:13:29.047Z,19.80
2018-08-31T10:14:32.919Z,19.80
2018-08-31T10:15:36.896Z,19.70
2018-08-31T10:16:40.648Z,19.80
2018-08-31T10:17:44.465Z,19.80
2018-08-31T10:18:48.163Z,19.80
2018-08-31T10:19:53.676Z,19.80
2018-08-31T10:20:57.376Z,19.90
2018-08-31T10:22:01.042Z,19.80
2018-08-31T10:23:05.001Z,19.60
2018-08-31T10:24:08.806Z,19.60
2018-08-31T10:25:12.914Z,19.60
2018-08-31T10:26:16.683Z,19.70
2018-08-31T10:27:20.369Z,19.80
2018-08-31T10:28:24.084Z,19.70
2018-08-31T10:29:28.085Z,19.80
2018-08-31T10:30:31.717Z,19.90
2018-08-31T10:31:35.419Z,20.00
2018-08-31T10:32:39.469Z,20.20
2018-08-31T10:33:43.560Z,20.30
2018-08-31T10:34:47.290Z,20.40
2018-08-31T10:35:50.833Z,20.50
2018-08-31T10:36:54.641Z,20.60
2018-08-31T10:37:58.583Z,20.60
2018-08-31T10:39:02.504Z,20.60
2018-08-31T10:40:06.207Z,20.60
2018-08-31T10:41:10.120Z,20.70
2018-08-31T10:42:13.961Z,20.70
2018-08-31T10:43:17.623Z,20.50
2018-08-31T10:44:21.416Z,20.30
2018-08-31T10:45:25.214Z,20.30
2018-08-31T10:46:29.191Z,20.30
2018-08-31T10:47:32.987Z,20.40
2018-08-31T10:48:36.878Z,20.50
2018-08-31T10:49:40.565Z,20.60
2018-08-31T10:50:44.261Z,20.70
2018-08-31T10:51:48.058Z,20.80
2018-08-31T10:52:51.702Z,21.00
2018-08-31T10:53:55.285Z,21.10
2018-08-31T10:54:59.437Z,21.10
2018-08-31T10:56:03.100Z,21.20
2018-08-31T10:57:06.842Z,21.20
2018-08-31T10:58:11.345Z,21.30
2018-08-31T10:59:15.268Z,21.40
2018-08-31T11:00:19.046Z,21.50
2018-08-31T11:01:22.935Z,21.60
2018-08-31T11:02:26.641Z,21.70
2018-08-31T11:03:30.854Z,21.70
2018-08-31T11:04:34.667Z,21.70
2018-08-31T11:05:38.750Z,21.80
2018-08-31T11:06:42.881Z,22.00
2018-08-31T11:07:46.621Z,22.00
2018-08-31T11:08:50.352Z,22.10
2018-08-31T11:09:54.983Z,22.20
2018-08-31T11:10:58.658Z,22.20
2018-08-31T11:12:02.542Z,22.20
2018-08-31T11:13:06.165Z,22.10
2018-08-31T11:14:10.090Z,22.10
2018-08-31T11:15:13.914Z,22.20
2018-08-31T11:16:17.549Z,22.40
2018-08-31T11:17:21.386Z,22.50
2018-08-31T11:18:25.488Z,22.50
2018-08-31T11:19:29.113Z,22.40
2018-08-31T11:20:33.006Z,22.30
2018-08-31T11:21:36.896Z,22.20
2018-08-31T11:22:40.531Z,22.20
2018-08-31T11:23:44.350Z,22.30
2018-08-31T11:24:48.308Z,22.20
2018-08-31T11:25:52.881Z,22.10
2018-08-31T11:26:58.097Z,22.10
2018-08-31T11:28:01.825Z,22.10
2018-08-31T11:29:06.645Z,21.90
2018-08-31T11:30:11.120Z,21.80
2018-08-31T11:31:15.319Z,21.70
2018-08-31T11:32:19.238Z,21.70
2018-08-31T11:33:23.327Z,21.80
2018-08-31T11:34:28.269Z,21.70
2018-08-31T11:35:32.432Z,21.70
2018-08-31T11:36:36.126Z,21.80
2018-08-31T11:37:40.117Z,21.80
2018-08-31T11:38:43.877Z,21.80
2018-08-31T11:39:47.523Z,21.90
2018-08-31T11:40:51.298Z,21.90
2018-08-31T11:41:55.801Z,22.00
2018-08-31T11:42:59.680Z,22.00
2018-08-31T11:44:03.438Z,21.90
2018-08-31T11:45:07.098Z,21.90
2018-08-31T11:46:10.872Z,22.00
2018-08-31T11:47:14.589Z,22.00
2018-08-31T11:48:18.292Z,21.90
2018-08-31T11:49:21.938Z,21.90
2018-08-31T11:50:25.732Z,21.70
2018-08-31T11:51:29.745Z,21.70
2018-08-31T11:52:34.351Z,21.60
2018-08-31T11:53:38.037Z,21.60
2018-08-31T11:54:42.093Z,21.60
2018-08-31T11:55:46.568Z,21.60
2018-08-31T11:56:50.265Z,21.70
2018-08-31T11:57:54.044Z,21.90
2018-08-31T11:58:57.666Z,21.90
2018-08-31T12:00:01.359Z,21.90
2018-08-31T12:01:05.366Z,22.00
2018-08-31T12:02:09.375Z,22.00
2018-08-31T12:03:13.851Z,22.10
2018-08-31T12:04:18.426Z,22.10
2018-08-31T12:05:22.677Z,22.10
2018-08-31T12:06:26.571Z,22.10
2018-08-31T12:07:31.279Z,22.20
2018-08-31T12:08:35.260Z,22.20
2018-08-31T12:09:39.020Z,22.20
2018-08-31T12:10:42.773Z,22.20
2018-08-31T12:11:47.331Z,22.10
2018-08-31T12:12:51.078Z,22.20
2018-08-31T12:13:55.065Z,22.20
2018-08-31T12:14:59.093Z,22.20
2018-08-31T12:16:03.101Z,22.30
2018-08-31T12:17:06.843Z,22.20
2018-08-31T12:18:10.707Z,22.20
2018-08-31T12:19:14.631Z,22.00
2018-08-31T12:20:18.690Z,22.00
2018-08-31T12:21:23.253Z,22.00
2018-08-31T12:22:27.122Z,22.10
2018-08-31T12:23:31.127Z,22.30
2018-08-31T12:24:35.308Z,22.50
2018-08-31T12:25:39.012Z,22.50
2018-08-31T12:26:42.684Z,22.60
2018-08-31T12:27:47.020Z,22.70
2018-08-31T12:28:50.935Z,22.70
2018-08-31T12:29:54.760Z,22.80
2018-08-31T12:30:58.636Z,22.80
2018-08-31T12:32:02.322Z,23.00
2018-08-31T12:33:06.146Z,22.90
2018-08-31T12:34:10.772Z,22.90
2018-08-31T12:35:14.504Z,22.80
2018-08-31T12:36:18.262Z,22.80
2018-08-31T12:37:22.104Z,22.80
2018-08-31T12:38:26.031Z,22.80
2018-08-31T12:39:29.797Z,22.70
2018-08-31T12:40:34.301Z,22.70
2018-08-31T12:41:38.240Z,22.60
2018-08-31T12:42:42.063Z,22.50
2018-08-31T12:43:45.815Z,22.60
2018-08-31T12:44:49.511Z,22.60
2018-08-31T12:45:53.451Z,22.70
2018-08-31T12:46:57.285Z,22.70
2018-08-31T12:48:01.015Z,22.80
2018-08-31T12:49:04.971Z,22.90
2018-08-31T12:50:08.692Z,23.00
2018-08-31T12:51:12.765Z,23.10
2018-08-31T12:52:17.117Z,23.10
2018-08-31T12:53:21.303Z,23.00
2018-08-31T12:54:26.744Z,23.00
2018-08-31T12:55:31.116Z,23.00
2018-08-31T12:56:35.374Z,22.90
2018-08-31T12:57:39.468Z,22.80
2018-08-31T12:58:43.945Z,22.90
2018-08-31T12:59:53.296Z,22.90
2018-08-31T13:00:57.330Z,22.80
2018-08-31T13:02:01.865Z,22.60
2018-08-31T13:03:06.152Z,22.40
2018-08-31T13:04:10.217Z,22.20
2018-08-31T13:05:14.415Z,22.00
2018-08-31T13:06:18.184Z,21.90
2018-08-31T13:07:21.939Z,21.90
2018-08-31T13:08:25.623Z,21.70
2018-08-31T13:09:29.261Z,21.70
2018-08-31T13:10:33.262Z,21.70
2018-08-31T13:11:37.173Z,21.70
2018-08-31T13:12:40.873Z,21.70
2018-08-31T13:13:44.880Z,21.70
2018-08-31T13:14:48.687Z,21.70
2018-08-31T13:15:52.825Z,21.60
2018-08-31T13:16:56.767Z,21.60
2018-08-31T13:18:00.587Z,21.50
2018-08-31T13:19:05.332Z,21.50
2018-08-31T13:20:09.191Z,21.60
2018-08-31T13:21:13.452Z,21.50
2018-08-31T13:22:17.370Z,21.30
2018-08-31T13:23:21.259Z,21.10
2018-08-31T13:24:24.917Z,21.00
2018-08-31T13:25:28.870Z,21.00
2018-08-31T13:26:33.260Z,21.00
2018-08-31T13:27:36.932Z,20.90
2018-08-31T13:28:40.801Z,20.70
2018-08-31T13:29:44.750Z,20.70
2018-08-31T13:30:48.497Z,20.70
2018-08-31T13:31:52.659Z,20.60
2018-08-31T13:33:04.598Z,20.40
2018-08-31T13:34:08.313Z,20.30
2018-08-31T13:35:12.791Z,20.20
2018-08-31T13:36:16.523Z,20.10
2018-08-31T13:37:20.392Z,20.10
2018-08-31T13:38:24.152Z,20.20
2018-08-31T13:39:28.115Z,20.20
2018-08-31T13:40:32.441Z,20.30
2018-08-31T13:41:36.115Z,20.30
2018-08-31T13:42:39.984Z,20.30
2018-08-31T13:43:43.632Z,20.40
2018-08-31T13:44:47.506Z,20.40
2018-08-31T13:45:51.229Z,20.40
2018-08-31T13:46:55.709Z,20.40
2018-08-31T13:47:59.785Z,20.30
2018-08-31T13:49:03.721Z,20.30
2018-08-31T13:50:08.335Z,20.30
2018-08-31T13:51:12.605Z,20.40
2018-08-31T13:52:16.226Z,20.50
2018-08-31T13:53:19.915Z,20.50
2018-08-31T13:54:23.623Z,20.50
2018-08-31T13:55:27.294Z,20.60
2018-08-31T13:56:31.709Z,20.60
2018-08-31T13:57:35.442Z,20.60
2018-08-31T13:58:39.211Z,20.50
2018-08-31T13:59:42.854Z,20.50
2018-08-31T14:00:46.466Z,20.60
2018-08-31T14:01:50.704Z,20.60
2018-08-31T14:02:54.447Z,20.70
2018-08-31T14:03:58.948Z,20.70
2018-08-31T14:05:02.889Z,20.70
2018-08-31T14:06:07.019Z,20.60
2018-08-31T14:07:14.190Z,20.70
2018-08-31T14:08:18.321Z,20.60
2018-08-31T14:09:22.066Z,20.40
2018-08-31T14:10:25.722Z,20.20
2018-08-31T14:11:29.474Z,20.10
2018-08-31T14:12:33.805Z,19.90
2018-08-31T14:13:38.135Z,19.80
2018-08-31T14:14:41.860Z,19.80
2018-08-31T14:15:45.845Z,19.70
2018-08-31T14:16:50.576Z,19.70
2018-08-31T14:17:54.262Z,19.70
2018-08-31T14:18:57.923Z,19.70
2018-08-31T14:20:01.955Z,19.60
2018-08-31T14:21:06.684Z,19.50
2018-08-31T14:22:11.319Z,19.50
2018-08-31T14:23:15.067Z,19.60
2018-08-31T14:24:19.073Z,19.60
2018-08-31T14:25:22.875Z,19.60
2018-08-31T14:26:26.579Z,19.60
2018-08-31T14:27:31.117Z,19.70
2018-08-31T14:28:35.309Z,19.80
2018-08-31T14:29:39.174Z,19.80
2018-08-31T14:30:42.830Z,19.80
2018-08-31T14:31:46.659Z,19.90
2018-08-31T14:32:50.485Z,19.90
2018-08-31T14:33:54.952Z,20.00
2018-08-31T14:34:59.327Z,20.10
2018-08-31T14:36:03.038Z,20.10
2018-08-31T14:37:06.862Z,20.20
2018-08-31T14:38:10.675Z,20.30
2018-08-31T14:39:15.295Z,20.30
2018-08-31T14:40:18.946Z,20.30
2018-08-31T14:41:22.736Z,20.30